createdAt,value
2019-01-16T00:01:36.762Z,4.60
2019-01-16T00:04:22.190Z,3.90
2019-01-16T00:07:09.560Z,4.37
2019-01-16T00:10:12.990Z,3.40
2019-01-16T00:13:01.449Z,5.17
2019-01-16T00:15:52.706Z,4.20
2019-01-16T00:27:34.307Z,3.60
2019-01-16T00:30:30.877Z,3.77
2019-01-16T00:33:40.949Z,3.50
2019-01-16T00:36:28.501Z,3.30
2019-01-16T00:42:22.208Z,3.50
2019-01-16T00:45:11.080Z,3.53
2019-01-16T00:47:57.893Z,3.33
2019-01-16T00:50:52.909Z,4.17
2019-01-16T00:53:37.412Z,4.00
2019-01-16T00:56:18.383Z,4.20
2019-01-16T00:59:12.634Z,4.13
2019-01-16T01:02:06.746Z,3.33
2019-01-16T01:04:57.890Z,3.87
2019-01-16T01:07:45.159Z,3.90
2019-01-16T01:10:36.606Z,4.00
2019-01-16T01:13:23.899Z,3.23
2019-01-16T01:16:08.450Z,3.60
2019-01-16T01:18:58.751Z,4.00
2019-01-16T01:21:47.120Z,3.67
2019-01-16T01:24:49.860Z,3.50
2019-01-16T01:27:50.688Z,3.47
2019-01-16T01:30:34.175Z,3.57
2019-01-16T01:33:16.187Z,4.17
2019-01-16T01:36:03.162Z,3.50
2019-01-16T01:38:51.325Z,3.60
2019-01-16T01:41:38.567Z,3.50
2019-01-16T01:44:27.665Z,3.50
2019-01-16T01:47:18.116Z,3.53
2019-01-16T01:50:19.928Z,3.53
2019-01-16T01:53:10.419Z,3.50
2019-01-16T01:55:53.368Z,4.10
2019-01-16T01:58:44.332Z,3.60
2019-01-16T02:01:32.541Z,3.60
2019-01-16T02:04:32.109Z,3.50
2019-01-16T02:07:29.836Z,3.53
2019-01-16T02:10:27.161Z,3.97
2019-01-16T02:13:13.176Z,3.63
2019-01-16T02:15:57.252Z,3.63
2019-01-16T02:21:28.913Z,3.50
2019-01-16T02:24:17.201Z,4.43
2019-01-16T02:26:56.187Z,3.80
2019-01-16T02:29:40.890Z,3.50
2019-01-16T02:32:35.338Z,3.53
2019-01-16T02:38:05.482Z,3.67
2019-01-16T02:41:04.999Z,3.77
2019-01-16T02:43:55.045Z,3.27
2019-01-16T02:46:41.962Z,3.40
2019-01-16T02:49:23.008Z,3.13
2019-01-16T02:52:11.426Z,3.47
2019-01-16T02:55:01.021Z,3.20
2019-01-16T02:57:45.702Z,3.00
2019-01-16T03:00:29.659Z,3.13
2019-01-16T03:03:17.789Z,3.37
2019-01-16T03:05:58.099Z,3.20
2019-01-16T03:08:55.780Z,3.30
2019-01-16T03:11:49.060Z,3.60
2019-01-16T03:14:51.696Z,3.53
2019-01-16T03:17:48.811Z,3.20
2019-01-16T03:20:39.847Z,3.50
2019-01-16T03:23:47.011Z,3.10
2019-01-16T03:26:43.301Z,3.20
2019-01-16T03:29:35.652Z,3.20
2019-01-16T03:32:34.514Z,3.30
2019-01-16T03:35:13.580Z,3.37
2019-01-16T03:38:00.730Z,3.33
2019-01-16T03:40:49.761Z,3.67
2019-01-16T03:43:43.069Z,3.30
2019-01-16T03:46:31.537Z,3.90
2019-01-16T03:49:31.101Z,3.60
2019-01-16T03:52:09.320Z,3.23
2019-01-16T03:54:56.322Z,2.97
2019-01-16T03:57:54.922Z,3.03
2019-01-16T04:00:43.230Z,2.80
2019-01-16T04:03:40.719Z,3.10
2019-01-16T04:06:24.867Z,3.00
2019-01-16T04:09:12.305Z,3.13
2019-01-16T04:12:03.270Z,2.90
2019-01-16T04:14:49.632Z,3.47
2019-01-16T04:17:44.473Z,2.70
2019-01-16T04:20:26.502Z,2.87
2019-01-16T04:23:19.628Z,3.00
2019-01-16T04:26:28.179Z,3.30
2019-01-16T04:29:15.498Z,2.87
2019-01-16T04:32:22.398Z,2.83
2019-01-16T04:35:09.269Z,2.47
2019-01-16T04:37:55.800Z,3.70
2019-01-16T04:40:43.657Z,2.70
2019-01-16T04:43:20.913Z,2.83
2019-01-16T04:46:35.498Z,3.10
2019-01-16T04:49:32.881Z,2.73
2019-01-16T04:52:27.253Z,2.73
2019-01-16T04:55:19.782Z,2.60
2019-01-16T04:58:06.765Z,2.40
2019-01-16T05:00:57.793Z,2.80
2019-01-16T05:04:01.569Z,2.33
2019-01-16T05:06:49.553Z,2.73
2019-01-16T05:10:04.291Z,3.00
2019-01-16T05:12:56.513Z,2.70
2019-01-16T05:15:45.640Z,3.47
2019-01-16T05:18:32.580Z,2.63
2019-01-16T05:21:21.222Z,2.80
2019-01-16T05:24:15.477Z,3.10
2019-01-16T05:27:02.512Z,2.67
2019-01-16T05:29:51.263Z,2.90
2019-01-16T05:38:52.070Z,2.90
2019-01-16T05:41:41.869Z,2.50
2019-01-16T05:44:42.075Z,3.03
2019-01-16T05:47:39.181Z,2.83
2019-01-16T05:50:24.371Z,2.73
2019-01-16T05:56:09.878Z,3.30
2019-01-16T05:58:59.209Z,2.97
2019-01-16T06:01:48.036Z,3.00
2019-01-16T06:04:46.316Z,2.73
2019-01-16T06:07:33.540Z,2.63
2019-01-16T06:10:28.057Z,3.77
2019-01-16T06:13:22.550Z,2.30
2019-01-16T06:16:03.186Z,3.33
2019-01-16T06:19:09.809Z,2.80
2019-01-16T06:21:57.746Z,3.00
2019-01-16T06:24:44.880Z,2.67
2019-01-16T06:27:41.198Z,3.70
2019-01-16T06:30:35.933Z,3.27
2019-01-16T06:36:40.244Z,3.53
2019-01-16T06:39:29.134Z,4.30
2019-01-16T06:45:04.008Z,3.17
2019-01-16T06:47:51.086Z,3.10
2019-01-16T06:50:51.192Z,2.83
2019-01-16T06:53:41.329Z,2.50
2019-01-16T06:56:38.937Z,2.90
2019-01-16T07:02:52.472Z,2.97
2019-01-16T07:06:12.690Z,3.00
2019-01-16T07:09:03.007Z,2.90
2019-01-16T07:12:04.166Z,2.77
2019-01-16T07:14:56.836Z,3.03
2019-01-16T07:17:51.428Z,2.90
2019-01-16T07:20:41.374Z,2.80
2019-01-16T07:23:20.936Z,2.60
2019-01-16T07:26:11.232Z,3.13
2019-01-16T07:29:07.033Z,2.80
2019-01-16T07:32:04.239Z,2.60
2019-01-16T07:34:47.710Z,3.10
2019-01-16T07:37:28.693Z,2.73
2019-01-16T07:40:23.541Z,2.60
2019-01-16T07:43:30.335Z,3.20
2019-01-16T07:46:18.044Z,3.07
2019-01-16T07:49:13.605Z,2.77
2019-01-16T07:52:09.009Z,3.13
2019-01-16T07:57:56.189Z,2.73
2019-01-16T08:00:57.441Z,2.80
2019-01-16T08:03:44.402Z,4.17
2019-01-16T08:06:36.813Z,3.13
2019-01-16T08:09:26.926Z,2.80
2019-01-16T08:12:29.670Z,2.83
2019-01-16T08:18:00.130Z,4.07
2019-01-16T08:20:48.784Z,2.90
2019-01-16T08:23:37.209Z,2.83
2019-01-16T08:26:26.637Z,2.60
2019-01-16T08:29:10.434Z,3.13
2019-01-16T08:32:08.167Z,2.67
2019-01-16T08:35:26.981Z,3.63
2019-01-16T08:38:36.764Z,3.23
2019-01-16T08:41:27.485Z,3.80
2019-01-16T08:44:18.511Z,3.27
2019-01-16T08:47:10.770Z,3.50
2019-01-16T08:50:01.611Z,3.03
2019-01-16T08:52:58.875Z,4.17
2019-01-16T08:55:47.877Z,3.43
2019-01-16T08:58:38.022Z,3.57
2019-01-16T09:01:32.534Z,3.43
2019-01-16T09:04:41.620Z,3.90
2019-01-16T09:07:45.350Z,2.93
2019-01-16T09:10:34.561Z,3.93
2019-01-16T09:13:32.021Z,3.43
2019-01-16T09:16:20.406Z,4.37
2019-01-16T09:19:24.938Z,4.50
2019-01-16T09:22:12.436Z,3.70
2019-01-16T09:24:59.598Z,4.20
2019-01-16T09:27:47.941Z,3.73
2019-01-16T09:30:38.238Z,3.60
2019-01-16T09:33:31.925Z,3.73
2019-01-16T09:36:12.733Z,3.63
2019-01-16T09:39:02.332Z,3.40
2019-01-16T09:42:34.669Z,3.50
2019-01-16T09:45:30.174Z,3.73
2019-01-16T10:27:48.158Z,3.70
2019-01-16T10:30:42.114Z,3.90
2019-01-16T10:33:42.000Z,4.43
2019-01-16T10:36:29.848Z,4.87
2019-01-16T10:39:18.215Z,4.83
2019-01-16T10:42:04.677Z,4.50
2019-01-16T10:44:59.503Z,5.17
2019-01-16T10:47:50.786Z,5.80
2019-01-16T10:50:44.968Z,5.13
2019-01-16T10:53:37.408Z,5.37
2019-01-16T10:56:26.753Z,4.73
2019-01-16T10:59:19.914Z,4.77
2019-01-16T11:02:03.847Z,4.33
2019-01-16T11:07:48.317Z,4.60
2019-01-16T11:10:47.639Z,4.70
2019-01-16T11:13:42.679Z,4.90
2019-01-16T11:16:32.020Z,4.30
2019-01-16T11:19:24.470Z,5.20
2019-01-16T11:22:15.976Z,4.73
2019-01-16T11:25:07.913Z,4.23
2019-01-16T11:28:05.159Z,4.60
2019-01-16T11:31:00.237Z,4.60
2019-01-16T11:33:51.370Z,4.70
2019-01-16T11:36:40.531Z,5.60
2019-01-16T11:39:43.062Z,4.60
2019-01-16T11:45:28.457Z,4.33
2019-01-16T11:48:28.964Z,4.50
2019-01-16T11:51:24.181Z,4.63
2019-01-16T11:54:28.333Z,4.47
2019-01-16T11:57:15.212Z,4.70
2019-01-16T12:00:06.831Z,4.30
2019-01-16T12:02:59.298Z,3.90
2019-01-16T12:08:42.368Z,4.53
2019-01-16T12:11:31.092Z,4.60
2019-01-16T12:14:20.356Z,4.63
2019-01-16T12:20:13.329Z,4.97
2019-01-16T12:22:52.046Z,4.37
2019-01-16T12:25:54.697Z,6.80
2019-01-16T12:28:38.085Z,5.03
2019-01-16T12:31:26.332Z,5.57
2019-01-16T12:34:15.151Z,4.27
2019-01-16T12:37:15.553Z,4.33
2019-01-16T12:40:19.298Z,4.57
2019-01-16T12:43:18.398Z,4.00
2019-01-16T12:46:06.601Z,4.50
2019-01-16T12:51:53.124Z,4.20
2019-01-16T12:54:51.590Z,4.23
2019-01-16T12:57:44.676Z,4.57
2019-01-16T13:00:27.647Z,4.63
2019-01-16T13:03:16.364Z,5.77
2019-01-16T13:06:04.632Z,5.97
2019-01-16T13:08:44.189Z,5.00
2019-01-16T13:11:36.559Z,4.80
2019-01-16T13:14:18.857Z,4.77
2019-01-16T13:20:17.689Z,5.70
2019-01-16T13:23:05.203Z,5.73
2019-01-16T13:25:52.360Z,5.10
2019-01-16T13:28:52.540Z,4.73
2019-01-16T13:31:43.803Z,4.60
2019-01-16T13:34:48.410Z,4.37
2019-01-16T13:37:38.030Z,5.97
2019-01-16T13:40:31.377Z,4.97
2019-01-16T13:43:26.284Z,4.90
2019-01-16T13:46:33.251Z,5.10
2019-01-16T13:49:21.898Z,5.07
2019-01-16T13:52:18.794Z,4.33
2019-01-16T13:55:16.938Z,4.50
2019-01-16T13:58:08.189Z,5.27
2019-01-16T14:01:08.260Z,4.63
2019-01-16T14:03:55.297Z,5.27
2019-01-16T14:06:41.202Z,4.93
2019-01-16T14:12:45.202Z,4.70
2019-01-16T14:15:34.904Z,5.00
2019-01-16T14:18:13.913Z,3.70
2019-01-16T14:21:01.537Z,4.13
2019-01-16T14:23:53.071Z,4.60
2019-01-16T14:26:41.660Z,4.17
2019-01-16T14:29:24.889Z,4.63
2019-01-16T14:32:19.768Z,3.97
2019-01-16T14:35:14.195Z,3.60
2019-01-16T14:41:01.015Z,4.03
2019-01-16T14:46:30.088Z,3.70
2019-01-16T14:49:24.485Z,4.87
2019-01-16T14:55:06.572Z,6.03
2019-01-16T15:00:53.563Z,4.40
2019-01-16T15:03:53.788Z,4.40
2019-01-16T15:06:54.638Z,3.70
2019-01-16T15:09:57.454Z,4.60
2019-01-16T15:12:45.428Z,4.33
2019-01-16T15:15:41.529Z,3.93
2019-01-16T15:18:41.283Z,4.80
2019-01-16T15:24:15.986Z,7.40
2019-01-16T15:27:13.608Z,6.07
2019-01-16T15:30:17.183Z,6.17
2019-01-16T15:32:59.400Z,5.47
2019-01-16T15:35:58.332Z,6.10
2019-01-16T15:38:58.790Z,5.10
2019-01-16T15:41:49.602Z,5.47
2019-01-16T15:44:55.053Z,6.03
2019-01-16T15:47:38.242Z,5.10
2019-01-16T15:50:39.761Z,5.03
2019-01-16T15:53:58.495Z,4.90
2019-01-16T15:56:52.640Z,5.70
2019-01-16T15:59:41.810Z,5.43
2019-01-16T16:02:30.366Z,5.83
2019-01-16T16:05:26.614Z,5.27
2019-01-16T16:08:32.013Z,4.40
2019-01-16T16:11:24.348Z,5.00
2019-01-16T16:14:13.442Z,6.07
2019-01-16T16:17:08.280Z,5.57
2019-01-16T16:19:57.150Z,5.67
2019-01-16T16:22:49.659Z,4.80
2019-01-16T16:28:41.538Z,7.87
2019-01-16T16:31:37.229Z,5.40
2019-01-16T16:34:42.546Z,4.77
2019-01-16T16:37:27.781Z,7.40
2019-01-16T16:43:01.254Z,6.77
2019-01-16T16:48:59.397Z,6.23
2019-01-16T16:51:54.357Z,5.97
2019-01-16T16:57:50.948Z,6.47
2019-01-16T17:00:53.211Z,6.03
2019-01-16T17:03:45.084Z,6.57
2019-01-16T17:10:08.286Z,6.97
2019-01-16T17:25:42.676Z,7.27
2019-01-16T17:28:32.751Z,8.10
2019-01-16T17:31:33.033Z,8.60
2019-01-16T17:34:33.631Z,9.03
2019-01-16T17:37:24.889Z,8.53
2019-01-16T17:40:12.687Z,9.13
2019-01-16T17:43:00.413Z,10.37
2019-01-16T17:46:01.186Z,10.43
2019-01-16T17:48:50.113Z,8.57
2019-01-16T17:51:38.902Z,8.83
2019-01-16T17:54:27.100Z,9.00
2019-01-16T17:57:22.313Z,15.37
2019-01-16T18:00:25.873Z,10.37
2019-01-16T18:03:17.383Z,11.90
2019-01-16T18:06:06.476Z,11.17
2019-01-16T18:08:53.466Z,10.23
2019-01-16T18:11:40.903Z,9.87
2019-01-16T18:14:43.953Z,10.30
2019-01-16T18:17:50.812Z,10.47
2019-01-16T18:20:57.634Z,11.20
2019-01-16T18:24:01.348Z,11.60
2019-01-16T18:26:59.279Z,11.90
2019-01-16T18:29:41.956Z,12.23
2019-01-16T18:36:07.911Z,10.80
2019-01-16T18:39:27.600Z,10.70
2019-01-16T18:42:23.495Z,11.53
2019-01-16T18:45:16.089Z,11.43
2019-01-16T18:48:09.301Z,11.47
2019-01-16T18:51:13.857Z,14.10
2019-01-16T18:54:02.580Z,12.87
2019-01-16T18:56:56.592Z,11.77
2019-01-16T18:59:49.662Z,11.30
2019-01-16T19:02:44.305Z,13.83
2019-01-16T19:05:50.242Z,12.20
2019-01-16T19:08:46.853Z,11.00
2019-01-16T19:11:34.622Z,36.27
2019-01-16T19:14:24.132Z,17.43
2019-01-16T19:17:18.824Z,12.13
2019-01-16T19:20:06.334Z,10.80
2019-01-16T19:22:58.150Z,12.53
2019-01-16T19:25:44.966Z,12.07
2019-01-16T19:28:48.362Z,14.97
2019-01-16T19:31:42.907Z,13.17
2019-01-16T19:34:49.520Z,13.10
2019-01-16T19:37:28.878Z,14.70
2019-01-16T19:40:17.490Z,14.30
2019-01-16T19:43:05.797Z,13.03
2019-01-16T19:45:46.916Z,13.23
2019-01-16T19:49:00.492Z,12.80
2019-01-16T19:51:50.121Z,13.63
2019-01-16T19:54:35.364Z,13.47
2019-01-16T19:57:24.729Z,14.07
2019-01-16T20:00:32.574Z,13.97
2019-01-16T20:03:41.025Z,14.07
2019-01-16T20:06:35.332Z,13.23
2019-01-16T20:12:39.318Z,13.20
2019-01-16T20:15:28.769Z,13.23
2019-01-16T20:18:39.740Z,13.33
2019-01-16T20:21:56.033Z,12.83
2019-01-16T20:24:48.685Z,13.23
2019-01-16T20:27:35.778Z,12.60
2019-01-16T20:30:25.797Z,12.40
2019-01-16T20:33:20.797Z,12.47
2019-01-16T20:36:09.867Z,12.07
2019-01-16T20:38:52.760Z,13.17
2019-01-16T20:41:43.922Z,12.93
2019-01-16T20:44:35.124Z,12.13
2019-01-16T20:47:42.268Z,11.27
2019-01-16T20:50:33.285Z,12.03
2019-01-16T20:53:24.908Z,12.33
2019-01-16T20:56:13.645Z,14.13
2019-01-16T20:59:04.147Z,12.20
2019-01-16T21:01:53.317Z,11.37
2019-01-16T21:04:43.731Z,11.70
2019-01-16T21:07:45.696Z,12.27
2019-01-16T21:10:36.044Z,12.33
2019-01-16T21:16:05.479Z,13.67
2019-01-16T21:18:44.433Z,12.63
2019-01-16T21:21:33.330Z,13.23
2019-01-16T21:24:23.101Z,13.60
2019-01-16T21:27:19.925Z,13.07
2019-01-16T21:30:20.299Z,12.63
2019-01-16T21:33:10.647Z,12.60
2019-01-16T21:36:00.110Z,12.80
2019-01-16T21:38:40.373Z,13.10
2019-01-16T21:41:32.834Z,26.33
2019-01-16T21:44:23.235Z,42.00
2019-01-16T21:47:29.420Z,14.97
2019-01-16T21:50:20.494Z,13.03
2019-01-16T21:53:37.525Z,13.73
2019-01-16T21:56:20.477Z,14.07
2019-01-16T21:59:06.722Z,13.13
2019-01-16T22:02:21.783Z,13.50
2019-01-16T22:05:09.318Z,14.07
2019-01-16T22:07:48.636Z,13.87
2019-01-16T22:10:48.437Z,12.83
2019-01-16T22:14:01.347Z,12.53
2019-01-16T22:16:37.305Z,13.17
2019-01-16T22:19:34.716Z,12.77
2019-01-16T22:22:38.688Z,12.47
2019-01-16T22:25:30.746Z,11.50
2019-01-16T22:28:19.894Z,10.73
2019-01-16T22:31:03.626Z,11.30
2019-01-16T22:33:51.959Z,11.37
2019-01-16T22:36:40.670Z,10.27
2019-01-16T22:39:41.337Z,10.97
2019-01-16T22:48:27.842Z,11.63
2019-01-16T22:51:36.554Z,10.73
2019-01-16T22:54:40.064Z,10.50
2019-01-16T22:57:46.639Z,9.10
2019-01-16T23:00:51.826Z,9.33
2019-01-16T23:03:38.906Z,10.20
2019-01-16T23:06:27.242Z,9.90
2019-01-16T23:09:15.596Z,10.43
2019-01-16T23:12:04.939Z,11.57
2019-01-16T23:14:43.455Z,12.77
2019-01-16T23:17:30.606Z,9.60
2019-01-16T23:20:09.725Z,10.13
2019-01-16T23:23:00.228Z,10.40
2019-01-16T23:25:51.541Z,10.10
2019-01-16T23:28:45.653Z,9.53
2019-01-16T23:31:32.512Z,8.60
2019-01-16T23:34:13.481Z,8.50
2019-01-16T23:37:14.184Z,9.37
2019-01-16T23:40:08.267Z,8.30
2019-01-16T23:42:55.183Z,11.43
2019-01-16T23:45:41.923Z,8.60
2019-01-16T23:48:23.180Z,8.53
2019-01-16T23:51:23.873Z,8.27
2019-01-16T23:54:21.009Z,8.30
2019-01-16T23:57:04.364Z,8.50
